TRA6842 LGKO-EHRD
Flight info
| Callsign | TRA6842 |
|---|---|
| Flight time | N/A |
| Altitude | 38000 |
| Route | LARKI UL609 MES DCT DISOR DCT LONTA UL608 DOLEV DCT ROTAR DCT MOBDO DCT SOTOV DCT XEBIX DCT USUDO DCT LIRSU DCT SOGRI L608 BUB Y28 HELEN |
| Aircraft | B738/M-SDE2E3FGHIJ1RWXYZ/LB1 |
Departure
| Time | N/A |
|---|---|
| Airport | Kos International Airport "Ippokratis" (LGKO) |
Arrival
| Time | 2026-05-04 20:46 |
|---|---|
| Airport | Rotterdam The Hague Airport (EHRD) |
| Time | Latitude | Longitude | Altitude | Speed | Heading |
|---|---|---|---|---|---|
| 2026-05-04 20:05 | 50.04463 | 6.68530 | 37975 ft | 447 kts | 310° |
| 2026-05-04 20:06 | 50.06609 | 6.65042 | 37977 ft | 447 kts | 310° |
| 2026-05-04 20:06 | 50.10916 | 6.58029 | 37967 ft | 447 kts | 309° |
| 2026-05-04 20:07 | 50.15214 | 6.51011 | 37973 ft | 447 kts | 309° |
| 2026-05-04 20:07 | 50.19430 | 6.43903 | 37962 ft | 444 kts | 303° |
| 2026-05-04 20:08 | 50.23015 | 6.36097 | 37966 ft | 442 kts | 300° |
| 2026-05-04 20:08 | 50.26479 | 6.28167 | 37973 ft | 442 kts | 300° |
| 2026-05-04 20:09 | 50.29967 | 6.20255 | 37973 ft | 442 kts | 301° |
| 2026-05-04 20:09 | 50.33478 | 6.12363 | 37971 ft | 442 kts | 301° |
| 2026-05-04 20:10 | 50.36973 | 6.04516 | 37980 ft | 442 kts | 301° |
| 2026-05-04 20:10 | 50.40501 | 5.96570 | 37476 ft | 449 kts | 301° |
| 2026-05-04 20:10 | 50.42300 | 5.92508 | 36964 ft | 446 kts | 300° |
| 2026-05-04 20:11 | 50.44038 | 5.88584 | 36611 ft | 441 kts | 300° |
| 2026-05-04 20:11 | 50.45801 | 5.84598 | 36166 ft | 437 kts | 300° |
| 2026-05-04 20:11 | 50.47499 | 5.80748 | 35771 ft | 433 kts | 300° |
| 2026-05-04 20:11 | 50.49205 | 5.76875 | 35351 ft | 430 kts | 299° |
| 2026-05-04 20:12 | 50.50898 | 5.73024 | 34948 ft | 427 kts | 299° |
| 2026-05-04 20:12 | 50.52580 | 5.69193 | 34543 ft | 424 kts | 299° |
| 2026-05-04 20:12 | 50.54245 | 5.65394 | 34143 ft | 421 kts | 298° |
| 2026-05-04 20:12 | 50.55899 | 5.61612 | 33688 ft | 419 kts | 298° |
| 2026-05-04 20:13 | 50.57546 | 5.57842 | 33249 ft | 416 kts | 298° |
| 2026-05-04 20:13 | 50.59175 | 5.54110 | 32832 ft | 413 kts | 298° |
| 2026-05-04 20:13 | 50.60797 | 5.50388 | 32429 ft | 409 kts | 298° |
| 2026-05-04 20:13 | 50.62399 | 5.46707 | 32043 ft | 406 kts | 298° |
| 2026-05-04 20:14 | 50.63987 | 5.43054 | 31654 ft | 403 kts | 298° |
| 2026-05-04 20:14 | 50.65563 | 5.39421 | 31268 ft | 400 kts | 298° |
| 2026-05-04 20:14 | 50.67129 | 5.35806 | 30893 ft | 397 kts | 298° |
| 2026-05-04 20:14 | 50.68681 | 5.32218 | 30523 ft | 395 kts | 298° |
| 2026-05-04 20:15 | 50.70224 | 5.28647 | 30145 ft | 393 kts | 298° |
| 2026-05-04 20:15 | 50.71752 | 5.25104 | 29730 ft | 390 kts | 299° |
| 2026-05-04 20:15 | 50.73276 | 5.21569 | 29296 ft | 387 kts | 299° |
| 2026-05-04 20:15 | 50.74784 | 5.18064 | 28876 ft | 384 kts | 299° |
| 2026-05-04 20:16 | 50.76277 | 5.14592 | 28511 ft | 381 kts | 300° |
| 2026-05-04 20:16 | 50.77757 | 5.11144 | 28113 ft | 378 kts | 300° |
| 2026-05-04 20:16 | 50.79223 | 5.07726 | 27725 ft | 375 kts | 300° |
| 2026-05-04 20:16 | 50.80550 | 5.04222 | 27339 ft | 368 kts | 292° |
| 2026-05-04 20:17 | 50.81465 | 5.00471 | 26901 ft | 364 kts | 284° |
| 2026-05-04 20:17 | 50.82190 | 4.96662 | 26524 ft | 361 kts | 283° |
| 2026-05-04 20:17 | 50.82888 | 4.92856 | 26142 ft | 359 kts | 283° |
| 2026-05-04 20:17 | 50.83582 | 4.89071 | 25769 ft | 357 kts | 283° |
| 2026-05-04 20:18 | 50.84279 | 4.85311 | 25405 ft | 355 kts | 284° |
| 2026-05-04 20:18 | 50.84978 | 4.81574 | 25041 ft | 354 kts | 284° |
| 2026-05-04 20:18 | 50.85679 | 4.77855 | 24676 ft | 352 kts | 284° |
| 2026-05-04 20:18 | 50.86378 | 4.74149 | 24317 ft | 351 kts | 285° |
| 2026-05-04 20:19 | 50.87076 | 4.70443 | 23945 ft | 350 kts | 285° |
| 2026-05-04 20:19 | 50.87771 | 4.66755 | 23580 ft | 350 kts | 285° |
| 2026-05-04 20:19 | 50.88466 | 4.63063 | 23155 ft | 349 kts | 285° |
| 2026-05-04 20:19 | 50.89157 | 4.59383 | 22765 ft | 348 kts | 285° |
| 2026-05-04 20:20 | 50.89847 | 4.55718 | 22388 ft | 346 kts | 287° |
| 2026-05-04 20:20 | 50.90766 | 4.52199 | 21971 ft | 347 kts | 298° |
| 2026-05-04 20:20 | 50.91996 | 4.48906 | 21564 ft | 347 kts | 301° |
| 2026-05-04 20:20 | 50.93275 | 4.45671 | 21193 ft | 346 kts | 302° |
| 2026-05-04 20:21 | 50.94554 | 4.42455 | 20833 ft | 345 kts | 301° |
| 2026-05-04 20:21 | 50.95825 | 4.39241 | 20484 ft | 343 kts | 301° |
| 2026-05-04 20:21 | 50.98332 | 4.32821 | 19783 ft | 341 kts | 301° |
| 2026-05-04 20:22 | 50.99554 | 4.29665 | 19449 ft | 340 kts | 301° |
| 2026-05-04 20:22 | 51.00804 | 4.26429 | 19099 ft | 339 kts | 301° |
| 2026-05-04 20:22 | 51.02029 | 4.23249 | 18752 ft | 337 kts | 302° |
| 2026-05-04 20:22 | 51.03234 | 4.20117 | 18413 ft | 336 kts | 302° |
| 2026-05-04 20:23 | 51.04446 | 4.16960 | 18050 ft | 334 kts | 302° |
| 2026-05-04 20:23 | 51.05670 | 4.13772 | 17665 ft | 332 kts | 302° |
| 2026-05-04 20:23 | 51.06853 | 4.10686 | 17310 ft | 330 kts | 302° |
| 2026-05-04 20:23 | 51.08042 | 4.07582 | 16966 ft | 327 kts | 302° |
| 2026-05-04 20:24 | 51.09272 | 4.04493 | 16622 ft | 324 kts | 307° |
| 2026-05-04 20:24 | 51.10820 | 4.01936 | 16327 ft | 319 kts | 322° |
| 2026-05-04 20:24 | 51.12564 | 3.99851 | 16017 ft | 316 kts | 324° |
| 2026-05-04 20:24 | 51.14366 | 3.97776 | 15682 ft | 314 kts | 324° |
| 2026-05-04 20:25 | 51.16105 | 3.95764 | 15359 ft | 313 kts | 324° |
| 2026-05-04 20:25 | 51.17853 | 3.93714 | 15039 ft | 311 kts | 324° |
| 2026-05-04 20:25 | 51.19583 | 3.91666 | 14717 ft | 309 kts | 323° |
| 2026-05-04 20:25 | 51.21307 | 3.89616 | 14396 ft | 308 kts | 323° |
| 2026-05-04 20:26 | 51.23077 | 3.87721 | 14057 ft | 306 kts | 336° |
| 2026-05-04 20:26 | 51.25118 | 3.86888 | 13741 ft | 303 kts | 356° |
| 2026-05-04 20:26 | 51.27220 | 3.86797 | 13409 ft | 301 kts | 360° |
| 2026-05-04 20:26 | 51.29312 | 3.86782 | 13062 ft | 300 kts | 0° |
| 2026-05-04 20:27 | 51.31388 | 3.86769 | 12732 ft | 298 kts | 360° |
| 2026-05-04 20:27 | 51.33454 | 3.86739 | 12411 ft | 296 kts | 359° |
| 2026-05-04 20:27 | 51.35505 | 3.86697 | 12088 ft | 294 kts | 359° |
| 2026-05-04 20:27 | 51.37548 | 3.86648 | 11785 ft | 292 kts | 359° |
| 2026-05-04 20:28 | 51.39579 | 3.86598 | 11469 ft | 291 kts | 359° |
| 2026-05-04 20:28 | 51.41576 | 3.86886 | 11147 ft | 289 kts | 17° |
| 2026-05-04 20:28 | 51.43358 | 3.88322 | 10872 ft | 286 kts | 34° |
| 2026-05-04 20:28 | 51.44978 | 3.90157 | 10574 ft | 285 kts | 36° |
| 2026-05-04 20:29 | 51.46572 | 3.92038 | 10264 ft | 284 kts | 36° |
| 2026-05-04 20:29 | 51.48144 | 3.93904 | 10120 ft | 277 kts | 36° |
| 2026-05-04 20:29 | 51.49680 | 3.95718 | 9967 ft | 271 kts | 36° |
| 2026-05-04 20:29 | 51.51200 | 3.97504 | 9662 ft | 270 kts | 36° |
| 2026-05-04 20:30 | 51.52711 | 3.99275 | 9377 ft | 268 kts | 36° |
| 2026-05-04 20:30 | 51.54217 | 4.01035 | 9106 ft | 267 kts | 36° |
| 2026-05-04 20:30 | 51.55207 | 4.02192 | 8916 ft | 266 kts | 36° |
| 2026-05-04 20:30 | 51.56695 | 4.03929 | 8637 ft | 264 kts | 36° |
| 2026-05-04 20:31 | 51.58181 | 4.05662 | 8374 ft | 262 kts | 36° |
| 2026-05-04 20:31 | 51.59650 | 4.07377 | 8110 ft | 261 kts | 36° |
| 2026-05-04 20:31 | 51.61117 | 4.09091 | 7842 ft | 259 kts | 36° |
| 2026-05-04 20:31 | 51.62570 | 4.10789 | 7575 ft | 258 kts | 36° |
| 2026-05-04 20:32 | 51.64018 | 4.12482 | 7308 ft | 257 kts | 36° |
| 2026-05-04 20:32 | 51.65462 | 4.14173 | 7045 ft | 256 kts | 36° |
| 2026-05-04 20:32 | 51.66898 | 4.15854 | 6781 ft | 255 kts | 36° |
| 2026-05-04 20:32 | 51.68327 | 4.17528 | 6515 ft | 254 kts | 35° |
| 2026-05-04 20:33 | 51.69746 | 4.19193 | 6335 ft | 249 kts | 36° |
| 2026-05-04 20:33 | 51.71130 | 4.20817 | 6193 ft | 242 kts | 36° |
| 2026-05-04 20:33 | 51.72471 | 4.22392 | 6094 ft | 235 kts | 35° |
| 2026-05-04 20:33 | 51.73768 | 4.23918 | 5986 ft | 227 kts | 36° |
| 2026-05-04 20:34 | 51.74915 | 4.25651 | 5811 ft | 226 kts | 49° |
| 2026-05-04 20:34 | 51.75922 | 4.27638 | 5651 ft | 232 kts | 51° |
| 2026-05-04 20:34 | 51.76936 | 4.29711 | 5465 ft | 238 kts | 51° |
| 2026-05-04 20:34 | 51.77971 | 4.31823 | 5253 ft | 239 kts | 51° |
| 2026-05-04 20:35 | 51.79002 | 4.33911 | 5047 ft | 236 kts | 51° |
| 2026-05-04 20:35 | 51.80023 | 4.35968 | 4853 ft | 233 kts | 50° |
| 2026-05-04 20:35 | 51.81034 | 4.37996 | 4650 ft | 230 kts | 50° |
| 2026-05-04 20:35 | 51.82035 | 4.40000 | 4450 ft | 229 kts | 50° |
| 2026-05-04 20:36 | 51.83032 | 4.41992 | 4261 ft | 227 kts | 50° |
| 2026-05-04 20:36 | 51.84022 | 4.43969 | 4065 ft | 225 kts | 50° |
| 2026-05-04 20:36 | 51.85006 | 4.45934 | 3883 ft | 224 kts | 50° |
| 2026-05-04 20:36 | 51.85972 | 4.47861 | 3706 ft | 223 kts | 50° |
| 2026-05-04 20:37 | 51.86949 | 4.49811 | 3524 ft | 223 kts | 50° |
| 2026-05-04 20:37 | 51.87922 | 4.51756 | 3336 ft | 223 kts | 50° |
| 2026-05-04 20:37 | 51.88908 | 4.53730 | 3149 ft | 222 kts | 50° |
| 2026-05-04 20:37 | 51.89880 | 4.55673 | 2989 ft | 221 kts | 50° |
| 2026-05-04 20:38 | 51.90827 | 4.57571 | 2902 ft | 219 kts | 50° |
| 2026-05-04 20:38 | 51.91787 | 4.59495 | 2805 ft | 220 kts | 50° |
| 2026-05-04 20:38 | 51.92747 | 4.61422 | 2715 ft | 220 kts | 50° |
| 2026-05-04 20:38 | 51.93708 | 4.63351 | 2616 ft | 220 kts | 50° |
| 2026-05-04 20:39 | 51.94667 | 4.65278 | 2523 ft | 219 kts | 50° |
| 2026-05-04 20:39 | 51.95617 | 4.67187 | 2419 ft | 217 kts | 50° |
| 2026-05-04 20:39 | 51.96563 | 4.69092 | 2342 ft | 216 kts | 50° |
| 2026-05-04 20:39 | 51.97503 | 4.70985 | 2249 ft | 214 kts | 51° |
| 2026-05-04 20:40 | 51.98411 | 4.72815 | 2181 ft | 202 kts | 51° |
| 2026-05-04 20:40 | 51.99266 | 4.74538 | 2040 ft | 192 kts | 51° |
| 2026-05-04 20:40 | 52.00127 | 4.76109 | 1982 ft | 183 kts | 35° |
| 2026-05-04 20:40 | 52.01320 | 4.76748 | 2011 ft | 183 kts | 5° |
| 2026-05-04 20:41 | 52.02562 | 4.76703 | 1997 ft | 173 kts | 359° |
| 2026-05-04 20:41 | 52.03712 | 4.76405 | 1971 ft | 171 kts | 338° |
| 2026-05-04 20:41 | 52.04588 | 4.75126 | 1995 ft | 176 kts | 300° |
| 2026-05-04 20:41 | 52.04761 | 4.73143 | 2021 ft | 183 kts | 266° |
| 2026-05-04 20:42 | 52.04656 | 4.71042 | 2010 ft | 189 kts | 269° |
| 2026-05-04 20:42 | 52.04566 | 4.68919 | 1996 ft | 187 kts | 269° |
| 2026-05-04 20:42 | 52.04473 | 4.66831 | 1991 ft | 183 kts | 266° |
| 2026-05-04 20:42 | 52.04023 | 4.64926 | 2001 ft | 184 kts | 234° |
| 2026-05-04 20:43 | 52.03308 | 4.63197 | 2006 ft | 181 kts | 240° |
| 2026-05-04 20:43 | 52.02666 | 4.61510 | 2028 ft | 169 kts | 239° |
| 2026-05-04 20:43 | 52.02042 | 4.59932 | 2000 ft | 163 kts | 238° |
| 2026-05-04 20:43 | 52.01426 | 4.58389 | 1901 ft | 165 kts | 238° |
| 2026-05-04 20:44 | 52.00797 | 4.56824 | 1725 ft | 166 kts | 238° |
| 2026-05-04 20:44 | 52.00164 | 4.55236 | 1504 ft | 168 kts | 239° |
| 2026-05-04 20:44 | 51.99535 | 4.53653 | 1313 ft | 167 kts | 239° |
| 2026-05-04 20:44 | 51.98899 | 4.52064 | 1075 ft | 168 kts | 239° |
| 2026-05-04 20:45 | 51.98260 | 4.50477 | 828 ft | 168 kts | 239° |
| 2026-05-04 20:45 | 51.97642 | 4.48903 | 586 ft | 167 kts | 240° |
| 2026-05-04 20:45 | 51.97008 | 4.47327 | 364 ft | 167 kts | 238° |
| 2026-05-04 20:45 | 51.96372 | 4.45733 | 94 ft | 169 kts | 238° |
| 2026-05-04 20:46 | 51.95742 | 4.44155 | -6 ft | 152 kts | 237° |
| 2026-05-04 20:46 | 51.95327 | 4.43108 | -6 ft | 57 kts | 238° |
| 2026-05-04 20:46 | 51.95197 | 4.42860 | -6 ft | 15 kts | 177° |
| 2026-05-04 20:46 | 51.95116 | 4.42953 | -6 ft | 14 kts | 125° |
| 2026-05-04 20:47 | 51.95132 | 4.43098 | -6 ft | 14 kts | 63° |
| 2026-05-04 20:47 | 51.95173 | 4.43232 | -6 ft | 13 kts | 58° |
| 2026-05-04 20:47 | 51.95223 | 4.43352 | -6 ft | 13 kts | 55° |
| 2026-05-04 20:47 | 51.95236 | 4.43438 | -6 ft | 7 kts | 113° |
| 2026-05-04 20:48 | 51.95201 | 4.43479 | -6 ft | 6 kts | 148° |
| 2026-05-04 20:48 | 51.95165 | 4.43515 | -6 ft | 6 kts | 148° |
| 2026-05-04 20:48 | 51.95132 | 4.43550 | -7 ft | 6 kts | 147° |
| 2026-05-04 20:48 | 51.95101 | 4.43583 | -7 ft | 5 kts | 147° |
| 2026-05-04 20:49 | 51.95070 | 4.43616 | -7 ft | 6 kts | 147° |
| 2026-05-04 20:49 | 51.95034 | 4.43652 | -7 ft | 7 kts | 156° |
| 2026-05-04 20:49 | 51.94999 | 4.43617 | -7 ft | 7 kts | 237° |
| 2026-05-04 20:49 | 51.94972 | 4.43548 | -7 ft | 8 kts | 237° |
| 2026-05-04 20:50 | 51.94965 | 4.43531 | -7 ft | 0 kts | 237° |
| 2026-05-04 20:50 | 51.94965 | 4.43530 | -7 ft | 0 kts | 237° |
| 2026-05-04 20:51 | 51.94965 | 4.43529 | -7 ft | 0 kts | 237° |
| 2026-05-04 20:51 | 51.94964 | 4.43528 | -7 ft | 0 kts | 237° |
| 2026-05-04 20:51 | 51.94964 | 4.43527 | -7 ft | 0 kts | 238° |
| 2026-05-04 20:51 | 51.94963 | 4.43523 | -7 ft | 0 kts | 240° |
| 2026-05-04 20:52 | 51.94961 | 4.43519 | -7 ft | 0 kts | 242° |
| 2026-05-04 20:52 | 51.94960 | 4.43515 | -7 ft | 1 kts | 245° |
| 2026-05-04 20:52 | 51.94959 | 4.43508 | -7 ft | 1 kts | 251° |
| 2026-05-04 20:52 | 51.94966 | 4.43479 | -7 ft | 3 kts | 316° |
| 2026-05-04 20:53 | 51.94971 | 4.43474 | -7 ft | 2 kts | 323° |
| 2026-05-04 20:53 | 51.94986 | 4.43456 | -7 ft | 0 kts | 325° |
| 2026-05-04 20:53 | 51.94989 | 4.43453 | -7 ft | 1 kts | 326° |
| 2026-05-04 20:53 | 51.94990 | 4.43452 | -7 ft | 0 kts | 326° |